createdAt,value
2018-02-14T00:00:46.794Z,15.75
2018-02-14T00:03:15.105Z,11.60
2018-02-14T00:05:42.644Z,11.82
2018-02-14T00:08:10.958Z,11.50
2018-02-14T00:10:38.513Z,11.95
2018-02-14T00:13:06.122Z,10.98
2018-02-14T00:15:33.654Z,9.85
2018-02-14T00:18:01.198Z,9.70
2018-02-14T00:20:28.738Z,11.10
2018-02-14T00:22:57.040Z,12.90
2018-02-14T00:25:24.613Z,12.90
2018-02-14T00:27:52.153Z,13.23
2018-02-14T00:30:20.462Z,13.32
2018-02-14T00:32:48.015Z,14.43
2018-02-14T00:35:16.316Z,11.35
2018-02-14T00:37:43.878Z,12.23
2018-02-14T00:40:11.415Z,11.90
2018-02-14T00:42:39.713Z,14.65
2018-02-14T00:45:07.252Z,13.45
2018-02-14T00:47:34.827Z,9.93
2018-02-14T00:50:03.167Z,10.70
2018-02-14T00:52:30.710Z,11.05
2018-02-14T00:54:58.238Z,11.52
2018-02-14T00:57:26.538Z,10.07
2018-02-14T00:59:54.836Z,9.65
2018-02-14T01:02:22.387Z,13.70
2018-02-14T01:04:49.929Z,14.35
2018-02-14T01:07:17.460Z,12.95
2018-02-14T01:09:45.000Z,8.65
2018-02-14T01:12:12.530Z,11.85
2018-02-14T01:14:40.854Z,10.88
2018-02-14T01:17:08.399Z,10.18
2018-02-14T01:19:36.673Z,8.15
2018-02-14T01:22:04.206Z,13.38
2018-02-14T01:24:31.796Z,10.43
2018-02-14T01:27:00.121Z,18.45
2018-02-14T01:29:27.660Z,11.00
2018-02-14T01:31:55.198Z,9.20
2018-02-14T01:34:23.513Z,11.65
2018-02-14T01:36:51.074Z,9.05
2018-02-14T01:39:18.635Z,16.08
2018-02-14T01:41:46.945Z,12.05
2018-02-14T01:44:14.482Z,11.60
2018-02-14T01:46:42.025Z,11.00
2018-02-14T01:49:09.555Z,11.88
2018-02-14T01:51:37.109Z,13.23
2018-02-14T01:54:04.647Z,12.13
2018-02-14T01:56:32.189Z,12.40
2018-02-14T01:59:00.572Z,11.30
2018-02-14T02:01:28.869Z,14.70
2018-02-14T02:03:56.437Z,12.35
2018-02-14T02:06:23.989Z,12.00
2018-02-14T02:08:52.286Z,17.65
2018-02-14T02:11:19.823Z,11.18
2018-02-14T02:13:47.352Z,13.48
2018-02-14T02:16:14.923Z,14.45
2018-02-14T02:18:42.579Z,11.07
2018-02-14T02:21:10.115Z,11.48
2018-02-14T02:23:37.648Z,13.88
2018-02-14T02:26:05.210Z,11.68
2018-02-14T02:28:33.114Z,11.57
2018-02-14T02:31:01.447Z,13.73
2018-02-14T02:33:29.037Z,10.00
2018-02-14T02:35:56.572Z,13.45
2018-02-14T02:38:24.122Z,11.75
2018-02-14T02:40:51.682Z,12.68
2018-02-14T02:43:19.285Z,9.02
2018-02-14T02:45:46.822Z,11.68
2018-02-14T02:48:14.362Z,13.80
2018-02-14T02:50:41.901Z,13.55
2018-02-14T02:53:10.218Z,12.23
2018-02-14T02:55:37.757Z,14.48
2018-02-14T02:58:06.053Z,9.43
2018-02-14T03:00:33.591Z,13.45
2018-02-14T03:03:01.117Z,14.50
2018-02-14T03:05:28.687Z,13.13
2018-02-14T03:07:56.218Z,13.77
2018-02-14T03:10:23.821Z,11.35
2018-02-14T03:12:51.457Z,13.35
2018-02-14T03:15:18.980Z,14.50
2018-02-14T03:17:46.651Z,16.00
2018-02-14T03:20:14.183Z,12.82
2018-02-14T03:22:41.730Z,13.57
2018-02-14T03:25:09.288Z,18.12
2018-02-14T03:27:36.913Z,18.23
2018-02-14T03:30:04.477Z,13.20
2018-02-14T03:32:32.083Z,16.65
2018-02-14T03:34:59.660Z,15.00
2018-02-14T03:37:27.184Z,16.58
2018-02-14T03:39:55.496Z,12.90
2018-02-14T03:42:23.055Z,14.48
2018-02-14T03:44:50.628Z,10.68
2018-02-14T03:47:18.167Z,12.48
2018-02-14T03:49:46.465Z,16.62
2018-02-14T03:52:14.007Z,16.12
2018-02-14T03:54:41.566Z,11.00
2018-02-14T03:57:09.105Z,17.15
2018-02-14T03:59:36.630Z,15.50
2018-02-14T04:02:04.193Z,14.48
2018-02-14T04:04:31.797Z,13.10
2018-02-14T04:06:59.351Z,17.37
2018-02-14T04:09:26.898Z,15.50
2018-02-14T04:11:54.565Z,14.90
2018-02-14T04:14:22.182Z,13.27
2018-02-14T04:16:49.774Z,16.12
2018-02-14T04:19:18.093Z,14.07
2018-02-14T04:21:45.653Z,17.62
2018-02-14T04:24:13.180Z,13.55
2018-02-14T04:26:41.463Z,13.18
2018-02-14T04:29:09.748Z,16.98
2018-02-14T04:31:38.073Z,13.62
2018-02-14T04:34:05.639Z,13.48
2018-02-14T04:36:33.165Z,13.25
2018-02-14T04:39:01.474Z,16.73
2018-02-14T04:41:29.017Z,15.45
2018-02-14T04:43:57.345Z,13.30
2018-02-14T04:46:25.654Z,19.15
2018-02-14T04:48:53.217Z,12.65
2018-02-14T04:51:20.733Z,14.80
2018-02-14T04:53:48.270Z,14.57
2018-02-14T04:56:16.600Z,16.70
2018-02-14T04:58:44.140Z,16.33
2018-02-14T05:01:12.430Z,14.38
2018-02-14T05:03:39.982Z,15.60
2018-02-14T05:06:07.521Z,17.45
2018-02-14T05:08:35.065Z,15.55
2018-02-14T05:11:02.630Z,19.05
2018-02-14T05:13:30.166Z,14.57
2018-02-14T05:15:57.772Z,13.00
2018-02-14T05:18:25.324Z,19.23
2018-02-14T05:20:52.875Z,20.85
2018-02-14T05:23:20.418Z,13.48
2018-02-14T05:25:47.977Z,17.80
2018-02-14T05:28:15.548Z,17.12
2018-02-14T05:30:43.090Z,16.75
2018-02-14T05:33:11.414Z,16.17
2018-02-14T05:35:38.959Z,19.58
2018-02-14T05:38:06.625Z,16.85
2018-02-14T05:40:34.186Z,17.98
2018-02-14T05:43:01.757Z,15.52
2018-02-14T05:45:29.531Z,13.82
2018-02-14T05:47:57.394Z,18.55
2018-02-14T05:50:24.939Z,16.25
2018-02-14T05:52:52.542Z,18.27
2018-02-14T05:55:20.100Z,19.65
2018-02-14T05:57:47.651Z,19.50
2018-02-14T06:00:15.951Z,18.20
2018-02-14T06:02:43.518Z,16.92
2018-02-14T06:05:11.058Z,17.73
2018-02-14T06:07:39.362Z,21.62
2018-02-14T06:10:06.922Z,18.70
2018-02-14T06:12:34.473Z,17.90
2018-02-14T06:15:02.769Z,16.55
2018-02-14T06:17:30.345Z,19.20
2018-02-14T06:19:57.910Z,16.65
2018-02-14T06:22:25.445Z,16.98
2018-02-14T06:24:54.212Z,15.90
2018-02-14T06:27:21.748Z,17.80
2018-02-14T06:29:49.297Z,16.30
2018-02-14T06:32:17.363Z,21.75
2018-02-14T06:34:44.914Z,17.10
2018-02-14T06:37:13.221Z,20.02
2018-02-14T06:39:40.784Z,20.67
2018-02-14T06:42:08.370Z,19.83
2018-02-14T06:44:35.920Z,20.50
2018-02-14T06:47:03.873Z,21.55
2018-02-14T06:49:32.142Z,20.55
2018-02-14T06:52:00.429Z,19.45
2018-02-14T06:54:28.786Z,18.20
2018-02-14T06:56:56.330Z,22.67
2018-02-14T06:59:23.901Z,21.70
2018-02-14T07:01:51.495Z,20.88
2018-02-14T07:04:19.032Z,21.00
2018-02-14T07:06:46.587Z,20.73
2018-02-14T07:09:14.139Z,19.37
2018-02-14T07:11:41.816Z,17.65
2018-02-14T07:14:09.361Z,20.50
2018-02-14T07:16:36.936Z,21.17
2018-02-14T07:19:04.476Z,18.80
2018-02-14T07:21:32.797Z,22.85
2018-02-14T07:24:00.364Z,21.75
2018-02-14T07:26:27.890Z,21.75
2018-02-14T07:28:55.435Z,20.70
2018-02-14T07:31:23.021Z,18.17
2018-02-14T07:33:51.336Z,19.02
2018-02-14T07:36:19.086Z,21.85
2018-02-14T07:38:46.909Z,20.15
2018-02-14T07:41:14.757Z,18.15
2018-02-14T07:43:42.262Z,23.67
2018-02-14T07:46:09.805Z,25.92
2018-02-14T07:48:37.355Z,20.65
2018-02-14T07:51:04.892Z,17.85
2018-02-14T07:53:32.839Z,19.92
2018-02-14T07:56:01.151Z,22.05
2018-02-14T07:58:28.693Z,22.35
2018-02-14T08:00:57.034Z,22.05
2018-02-14T08:03:24.555Z,19.73
2018-02-14T08:05:52.096Z,19.75
2018-02-14T08:08:20.435Z,23.30
2018-02-14T08:10:47.975Z,21.25
2018-02-14T08:13:15.503Z,21.73
2018-02-14T08:15:43.190Z,22.13
2018-02-14T08:18:11.482Z,21.17
2018-02-14T08:20:39.023Z,24.48
2018-02-14T08:23:07.328Z,22.25
2018-02-14T08:25:34.863Z,22.23
2018-02-14T08:28:03.179Z,23.05
2018-02-14T08:30:30.712Z,20.37
2018-02-14T08:32:59.026Z,22.00
2018-02-14T08:35:26.561Z,21.05
2018-02-14T08:37:54.108Z,22.50
2018-02-14T08:40:21.640Z,21.23
2018-02-14T08:42:49.179Z,22.02
2018-02-14T08:45:16.716Z,22.55
2018-02-14T08:47:45.175Z,20.52
2018-02-14T08:50:12.712Z,21.58
2018-02-14T08:52:40.236Z,23.27
2018-02-14T08:55:07.780Z,26.15
2018-02-14T08:57:35.851Z,21.85
2018-02-14T09:00:03.389Z,22.67
2018-02-14T09:02:31.125Z,20.80
2018-02-14T09:04:59.443Z,22.92
2018-02-14T09:07:26.988Z,22.35
2018-02-14T09:09:54.546Z,22.60
2018-02-14T09:12:22.085Z,24.60
2018-02-14T09:14:49.640Z,22.48
2018-02-14T09:17:17.168Z,25.62
2018-02-14T09:19:44.867Z,25.20
2018-02-14T09:22:12.400Z,22.85
2018-02-14T09:24:39.930Z,22.85
2018-02-14T09:27:08.229Z,27.58
2018-02-14T09:29:35.778Z,19.85
2018-02-14T09:32:03.303Z,24.20
2018-02-14T09:34:30.828Z,21.02
2018-02-14T09:36:58.397Z,23.25
2018-02-14T09:39:25.924Z,23.77
2018-02-14T09:41:53.456Z,22.13
2018-02-14T09:44:21.002Z,22.87
2018-02-14T09:46:48.532Z,22.40
2018-02-14T09:49:16.851Z,20.42
2018-02-14T09:51:44.506Z,22.50
2018-02-14T09:54:12.036Z,20.80
2018-02-14T09:56:39.637Z,19.25
2018-02-14T09:59:07.174Z,18.33
2018-02-14T10:01:34.702Z,18.20
2018-02-14T10:04:02.249Z,18.60
2018-02-14T10:06:29.802Z,17.77
2018-02-14T10:08:57.447Z,20.05
2018-02-14T10:11:25.755Z,17.83
2018-02-14T10:13:53.290Z,16.85
2018-02-14T10:16:21.608Z,17.10
2018-02-14T10:18:49.151Z,20.17
2018-02-14T10:21:17.445Z,17.20
2018-02-14T10:23:44.964Z,17.60
2018-02-14T10:26:12.489Z,17.02
2018-02-14T10:28:40.023Z,16.20
2018-02-14T10:31:08.418Z,18.55
2018-02-14T10:33:35.947Z,16.08
2018-02-14T10:36:03.457Z,16.83
2018-02-14T10:38:30.979Z,16.52
2018-02-14T10:40:58.581Z,15.60
2018-02-14T10:43:26.107Z,19.00
2018-02-14T10:45:53.684Z,19.85
2018-02-14T10:48:21.995Z,18.73
2018-02-14T10:50:49.523Z,17.00
2018-02-14T10:53:17.084Z,17.90
2018-02-14T10:55:44.609Z,18.15
2018-02-14T10:58:12.249Z,17.48
2018-02-14T11:00:45.456Z,14.82
2018-02-14T11:03:18.740Z,18.58
2018-02-14T11:05:51.978Z,16.08
2018-02-14T11:08:19.610Z,13.55
2018-02-14T11:10:47.133Z,18.30
2018-02-14T11:13:14.686Z,15.00
2018-02-14T11:15:42.208Z,14.27
2018-02-14T11:18:09.761Z,13.95
2018-02-14T11:20:37.347Z,15.75
2018-02-14T11:23:04.894Z,15.68
2018-02-14T11:25:32.440Z,17.65
2018-02-14T11:28:00.739Z,13.20
2018-02-14T11:30:28.274Z,12.95
2018-02-14T11:32:55.816Z,18.87
2018-02-14T11:35:23.417Z,67.45
2018-02-14T11:37:51.712Z,50.38
2018-02-14T11:40:20.102Z,29.20
2018-02-14T11:42:47.633Z,27.60
2018-02-14T11:45:15.174Z,26.33
2018-02-14T11:47:42.713Z,15.02
2018-02-14T11:50:10.319Z,22.30
2018-02-14T11:52:37.854Z,14.75
2018-02-14T11:55:05.450Z,16.73
2018-02-14T11:57:33.035Z,25.55
2018-02-14T12:00:00.600Z,24.85
2018-02-14T12:02:28.138Z,41.72
2018-02-14T12:04:55.700Z,12.00
2018-02-14T12:07:23.226Z,13.32
2018-02-14T12:09:50.769Z,12.23
2018-02-14T12:12:19.081Z,14.30
2018-02-14T12:14:46.614Z,12.90
2018-02-14T12:17:14.916Z,9.40
2018-02-14T12:19:42.445Z,10.55
2018-02-14T12:22:09.987Z,10.60
2018-02-14T12:24:37.527Z,12.50
2018-02-14T12:27:05.063Z,11.73
2018-02-14T12:29:33.390Z,10.48
2018-02-14T12:32:00.924Z,10.93
2018-02-14T12:34:28.749Z,11.20
2018-02-14T12:36:56.285Z,9.70
2018-02-14T12:39:23.944Z,9.50
2018-02-14T12:41:51.495Z,9.75
2018-02-14T12:44:19.004Z,9.50
2018-02-14T12:46:46.549Z,15.57
2018-02-14T12:49:14.070Z,10.45
2018-02-14T12:51:42.465Z,10.40
2018-02-14T12:54:10.781Z,11.80
2018-02-14T12:56:38.309Z,10.95
2018-02-14T12:59:06.624Z,9.40
2018-02-14T13:01:34.144Z,8.93
2018-02-14T13:04:02.438Z,8.60
2018-02-14T13:06:30.713Z,8.15
2018-02-14T13:08:59.002Z,7.72
2018-02-14T13:11:27.324Z,7.93
2018-02-14T13:13:54.865Z,8.60
2018-02-14T13:16:22.483Z,7.55
2018-02-14T13:18:49.966Z,6.50
2018-02-14T13:21:17.502Z,8.32
2018-02-14T13:23:45.416Z,9.95
2018-02-14T13:26:13.702Z,6.80
2018-02-14T13:28:41.990Z,7.78
2018-02-14T13:31:10.269Z,5.78
2018-02-14T13:33:38.712Z,6.20
2018-02-14T13:36:06.257Z,6.12
2018-02-14T13:38:33.790Z,9.60
2018-02-14T13:41:02.076Z,7.82
2018-02-14T13:43:29.624Z,9.73
2018-02-14T13:45:57.916Z,7.22
2018-02-14T13:48:26.594Z,6.75
2018-02-14T13:50:54.880Z,8.82
2018-02-14T13:53:23.191Z,5.45
2018-02-14T13:55:50.712Z,7.43
2018-02-14T13:58:18.303Z,5.65
2018-02-14T14:00:46.617Z,5.00
2018-02-14T14:03:14.152Z,5.60
2018-02-14T14:05:42.448Z,4.85
2018-02-14T14:08:10.013Z,5.18
2018-02-14T14:10:37.546Z,4.62
2018-02-14T14:13:05.900Z,5.87
2018-02-14T14:15:33.434Z,5.62
2018-02-14T14:18:01.119Z,4.75
2018-02-14T14:20:28.652Z,5.82
2018-02-14T14:22:56.244Z,7.05
2018-02-14T14:25:23.792Z,6.60
2018-02-14T14:27:51.320Z,7.07
2018-02-14T14:30:19.012Z,7.30
2018-02-14T14:32:46.546Z,5.72
2018-02-14T14:35:14.065Z,6.72
2018-02-14T14:37:41.619Z,5.87
2018-02-14T14:40:09.138Z,5.05
2018-02-14T14:42:36.675Z,6.28
2018-02-14T14:45:04.198Z,5.53
2018-02-14T14:47:32.505Z,9.13
2018-02-14T14:50:00.113Z,5.70
2018-02-14T14:52:27.627Z,7.50
2018-02-14T14:54:55.184Z,7.97
2018-02-14T14:57:22.674Z,6.18
2018-02-14T14:59:50.220Z,5.68
2018-02-14T15:02:17.785Z,5.82
2018-02-14T15:04:45.359Z,8.50
2018-02-14T15:07:13.753Z,5.90
2018-02-14T15:09:41.367Z,5.85
2018-02-14T15:12:08.936Z,6.65
2018-02-14T15:14:36.637Z,6.55
2018-02-14T15:17:04.179Z,7.00
2018-02-14T15:19:32.464Z,6.28
2018-02-14T15:22:00.847Z,7.15
2018-02-14T15:24:29.141Z,22.27
2018-02-14T15:26:56.734Z,8.55
2018-02-14T15:29:24.266Z,6.15
2018-02-14T15:31:52.563Z,6.60
2018-02-14T15:34:20.088Z,6.07
2018-02-14T15:36:47.599Z,8.13
2018-02-14T15:39:15.538Z,6.80
2018-02-14T15:41:43.827Z,7.97
2018-02-14T15:44:12.114Z,7.28
2018-02-14T15:46:40.415Z,7.65
2018-02-14T15:49:07.961Z,9.18
2018-02-14T15:51:36.268Z,7.53
2018-02-14T15:54:03.789Z,9.00
2018-02-14T15:56:31.317Z,7.50
2018-02-14T15:58:58.839Z,8.13
2018-02-14T16:01:26.399Z,7.50
2018-02-14T16:03:54.717Z,7.25
2018-02-14T16:06:22.252Z,6.97
2018-02-14T16:08:50.555Z,8.07
2018-02-14T16:11:18.103Z,9.88
2018-02-14T16:13:46.398Z,7.25
2018-02-14T16:16:14.028Z,7.03
2018-02-14T16:18:41.559Z,7.32
2018-02-14T16:21:09.092Z,6.30
2018-02-14T16:23:36.631Z,8.30
2018-02-14T16:26:04.945Z,11.05
2018-02-14T16:28:32.520Z,22.42
2018-02-14T16:31:00.056Z,12.50
2018-02-14T16:33:28.370Z,9.55
2018-02-14T16:35:56.030Z,17.75
2018-02-14T16:38:23.556Z,47.70
2018-02-14T16:40:51.893Z,18.58
2018-02-14T16:43:19.468Z,12.73
2018-02-14T16:45:47.040Z,11.07
2018-02-14T16:48:14.570Z,12.20
2018-02-14T16:50:42.121Z,7.50
2018-02-14T16:53:10.438Z,8.25
2018-02-14T16:55:37.957Z,8.43
2018-02-14T16:58:06.251Z,7.03
2018-02-14T17:00:34.552Z,9.13
2018-02-14T17:03:02.082Z,9.00
2018-02-14T17:05:29.635Z,8.13
2018-02-14T17:07:57.163Z,8.38
2018-02-14T17:10:24.686Z,7.97
2018-02-14T17:12:52.962Z,7.78
2018-02-14T17:15:21.250Z,8.82
2018-02-14T17:17:49.565Z,8.18
2018-02-14T17:20:17.116Z,7.82
2018-02-14T17:22:44.643Z,9.15
2018-02-14T17:25:12.205Z,7.57
2018-02-14T17:27:39.728Z,8.35
2018-02-14T17:30:07.379Z,8.45
2018-02-14T17:32:35.671Z,7.68
2018-02-14T17:35:03.251Z,10.68
2018-02-14T17:37:30.788Z,7.82
2018-02-14T17:39:58.317Z,12.65
2018-02-14T17:42:26.244Z,7.80
2018-02-14T17:44:53.784Z,21.02
2018-02-14T17:47:22.077Z,11.12
2018-02-14T17:49:49.593Z,8.23
2018-02-14T17:52:17.126Z,9.15
2018-02-14T17:54:44.659Z,8.30
2018-02-14T17:57:12.949Z,7.68
2018-02-14T17:59:40.497Z,17.60
2018-02-14T18:02:08.013Z,15.25
2018-02-14T18:04:35.655Z,8.20
2018-02-14T18:07:03.194Z,8.38
2018-02-14T18:09:31.540Z,13.43
2018-02-14T18:11:59.136Z,8.85
2018-02-14T18:14:27.432Z,11.02
2018-02-14T18:16:55.726Z,8.70
2018-02-14T18:19:23.281Z,9.50
2018-02-14T18:21:50.864Z,8.32
2018-02-14T18:24:18.463Z,82.30
2018-02-14T18:26:46.017Z,52.72
2018-02-14T18:29:13.581Z,81.95
2018-02-14T18:31:41.138Z,11.88
2018-02-14T18:34:08.697Z,9.65
2018-02-14T18:36:36.313Z,9.38
2018-02-14T18:39:04.018Z,9.13
2018-02-14T18:41:32.334Z,8.02
2018-02-14T18:44:00.083Z,8.23
2018-02-14T18:46:27.683Z,9.98
2018-02-14T18:48:55.311Z,8.02
2018-02-14T18:51:22.915Z,9.13
2018-02-14T18:53:50.548Z,8.80
2018-02-14T18:56:18.076Z,9.80
2018-02-14T18:58:45.625Z,11.18
2018-02-14T19:01:13.304Z,9.70
2018-02-14T19:03:40.887Z,10.25
2018-02-14T19:06:08.406Z,8.73
2018-02-14T19:08:36.740Z,9.15
2018-02-14T19:11:04.367Z,9.48
2018-02-14T19:13:31.930Z,10.30
2018-02-14T19:15:59.487Z,11.00
2018-02-14T19:18:27.118Z,11.23
2018-02-14T19:20:54.691Z,13.60
2018-02-14T19:23:22.308Z,40.12
2018-02-14T19:25:49.849Z,56.03
2018-02-14T19:28:17.445Z,31.87
2018-02-14T19:30:45.029Z,16.23
2018-02-14T19:33:13.437Z,13.02
2018-02-14T19:35:41.030Z,15.23
2018-02-14T19:38:08.598Z,13.85
2018-02-14T19:40:36.217Z,19.00
2018-02-14T19:43:04.619Z,17.25
2018-02-14T19:45:32.241Z,15.15
2018-02-14T19:47:59.969Z,18.40
2018-02-14T19:50:27.567Z,14.90
2018-02-14T19:52:55.185Z,18.98
2018-02-14T19:55:23.553Z,16.08
2018-02-14T19:57:51.918Z,15.98
2018-02-14T20:00:19.620Z,17.00
2018-02-14T20:02:48.024Z,24.17
2018-02-14T20:05:15.597Z,19.98
2018-02-14T20:07:43.193Z,18.20
2018-02-14T20:10:10.768Z,17.75
2018-02-14T20:12:38.316Z,16.83
2018-02-14T20:15:06.028Z,16.92
2018-02-14T20:17:34.367Z,17.08
2018-02-14T20:20:01.934Z,19.12
2018-02-14T20:22:29.499Z,19.98
2018-02-14T20:24:57.821Z,17.60
2018-02-14T20:27:26.162Z,17.08
2018-02-14T20:29:53.698Z,22.27
2018-02-14T20:32:21.266Z,74.35
2018-02-14T20:34:48.836Z,56.35
2018-02-14T20:37:16.390Z,43.42
2018-02-14T20:39:43.930Z,24.63
2018-02-14T20:42:12.270Z,20.23
2018-02-14T20:44:40.582Z,19.70
2018-02-14T20:47:08.149Z,18.83
2018-02-14T20:49:35.711Z,21.17
2018-02-14T20:52:03.299Z,19.92
2018-02-14T20:54:32.487Z,15.73
2018-02-14T20:57:00.813Z,19.87
2018-02-14T20:59:28.411Z,17.92
2018-02-14T21:01:56.701Z,19.17
2018-02-14T21:04:24.260Z,16.60
2018-02-14T21:06:51.826Z,19.17
2018-02-14T21:09:19.371Z,15.55
2018-02-14T21:11:47.043Z,16.37
2018-02-14T21:14:14.590Z,16.77
2018-02-14T21:16:42.128Z,19.05
2018-02-14T21:19:10.446Z,18.25
2018-02-14T21:21:37.992Z,18.40
2018-02-14T21:24:05.578Z,17.85
2018-02-14T21:26:33.093Z,19.70
2018-02-14T21:29:01.404Z,20.25
2018-02-14T21:31:28.966Z,20.52
2018-02-14T21:33:56.508Z,15.95
2018-02-14T21:36:24.849Z,20.17
2018-02-14T21:38:52.415Z,17.00
2018-02-14T21:41:19.969Z,20.30
2018-02-14T21:43:47.514Z,18.17
2018-02-14T21:46:15.131Z,20.35
2018-02-14T21:48:42.719Z,17.73
2018-02-14T21:51:11.033Z,16.17
2018-02-14T21:53:38.601Z,17.42
2018-02-14T21:56:06.132Z,16.33
2018-02-14T21:58:34.422Z,15.63
2018-02-14T22:01:02.797Z,16.23
2018-02-14T22:03:31.285Z,16.45
2018-02-14T22:05:58.850Z,15.43
2018-02-14T22:08:27.165Z,17.90
2018-02-14T22:10:54.788Z,15.40
2018-02-14T22:13:22.366Z,18.08
2018-02-14T22:15:50.692Z,17.77
2018-02-14T22:18:18.263Z,16.70
2018-02-14T22:20:45.810Z,15.48
2018-02-14T22:23:13.510Z,14.70
2018-02-14T22:25:41.543Z,15.00
2018-02-14T22:28:09.870Z,18.73
2018-02-14T22:30:37.445Z,15.68
2018-02-14T22:33:05.003Z,15.00
2018-02-14T22:35:32.642Z,16.70
2018-02-14T22:38:00.207Z,15.85
2018-02-14T22:40:27.754Z,16.30
2018-02-14T22:42:55.391Z,16.48
2018-02-14T22:45:22.952Z,18.62
2018-02-14T22:47:50.507Z,16.12
2018-02-14T22:50:18.132Z,17.08
2018-02-14T22:52:45.681Z,17.25
2018-02-14T22:55:13.991Z,15.35
2018-02-14T22:57:41.534Z,14.73
2018-02-14T23:00:09.833Z,18.05
2018-02-14T23:02:37.396Z,15.75
2018-02-14T23:05:04.922Z,16.20
2018-02-14T23:07:32.466Z,16.83
2018-02-14T23:10:00.021Z,14.75
2018-02-14T23:12:27.592Z,15.90
2018-02-14T23:14:55.163Z,15.52
2018-02-14T23:17:22.689Z,15.65
2018-02-14T23:19:50.298Z,15.60
2018-02-14T23:22:17.835Z,14.35
2018-02-14T23:24:45.377Z,16.27
2018-02-14T23:27:12.998Z,17.12
2018-02-14T23:29:40.530Z,17.90
2018-02-14T23:32:08.081Z,16.12
2018-02-14T23:34:35.621Z,15.88
2018-02-14T23:37:03.933Z,14.50
2018-02-14T23:39:31.509Z,15.55
2018-02-14T23:41:59.052Z,15.15
2018-02-14T23:44:26.592Z,16.10
2018-02-14T23:46:54.919Z,17.20
2018-02-14T23:49:22.448Z,18.52
2018-02-14T23:51:50.771Z,15.70
2018-02-14T23:54:18.311Z,22.20
2018-02-14T23:56:45.868Z,18.20
2018-02-14T23:59:14.164Z,20.92
